Informes de METARS cercanos

 

LEAL - Alicante/El Alte, Spain
Distance from station: SSE 60km
Actualización: 29/01/2022 14:00
Despejado
Despejado
 Viento del SSE
Viento: SSE 6 km/h
Temperatura: 18°C
Rocío: -1°C
Humedad: 28%
Barómetro: 1032 hPa
Resumen: Despejado
Visibility: greater than 10 km
2022/01/29 13:00 LEAL 291300Z 16003KT 090V230 CAVOK 18/M01 Q1032 NOSIG
LEVC - Valencia (civ/Mi, Spain
Distance from station: NNE 84km
Actualización: 29/01/2022 14:00
Despejado
Despejado
 Viento del ESE
Viento: ESE 9 km/h
Temperatura: 17°C
Rocío: -4°C
Humedad: 24%
Barómetro: 1032 hPa
Resumen: Despejado
Visibility: greater than 10 km
2022/01/29 13:00 LEVC 291300Z 12005KT 090V170 CAVOK 17/M04 Q1032 NOSIG
 
LEAB - Albacete (civ/Mi, Spain
Distance from station: O 95km
Actualización: 29/01/2022 14:00
Despejado
Despejado
 Viento del NNE
Viento: NNE 9 km/h
Temperatura: 14°C
Rocío: -8°C
Humedad: 21%
Barómetro: 1033 hPa
Resumen: Despejado
Visibility: greater than 10 km
2022/01/29 13:00 LEAB 291300Z 02005KT CAVOK 14/M08 Q1033 NOSIG
LERI - Alcantarilla(Sp-, Spain
Distance from station: SSO 100km
Actualización: 29/01/2022 14:00
Despejado
Despejado
 Viento del varies
Viento: varies 2 km/h
Temperatura: 16°C
Rocío: 0°C
Humedad: 34%
Barómetro: 1033 hPa
Resumen: Despejado
Visibility: greater than 10 km
2022/01/29 13:00 LERI 291300Z VRB01KT CAVOK 16/00 Q1033 NOSIG
 
LELC - San Javier(Mil/C, Spain
Distance from station: S 113km
Actualización: 29/01/2022 14:00
Despejado
Despejado
 Viento del SE
Viento: SE 6 km/h
Temperatura: 15°C
Rocío: 6°C
Humedad: 55%
Barómetro: 1033 hPa
Resumen: Despejado
Visibility: greater than 10 km
2022/01/29 13:00 LELC 291300Z 13003KT 100V170 CAVOK 15/06 Q1033 NOSIG
LEIB - Ibiza/Es Codola, Spain
Distance from station: E 186km
Actualización: 29/01/2022 14:00
Despejado
Despejado
 Viento del SSO
Viento: SSO 11 km/h
Temperatura: 16°C
Rocío: 10°C
Humedad: 68%
Barómetro: 1032 hPa
Resumen: Despejado
Visibility: greater than 10 km
2022/01/29 13:00 LEIB 291300Z 21006KT 180V240 CAVOK 16/10 Q1032 NOSIG
 
LEAM - Almeria Airport, Spain
Distance from station: SSO 256km
Actualización: 29/01/2022 14:00
Despejado
Despejado
 Viento del ENE
Viento: ENE 30 km/h
Temperatura: 20°C
Rocío: -11°C
Humedad: 11%
Barómetro: 1031 hPa
Resumen: Despejado
Visibility: greater than 10 km
2022/01/29 13:00 LEAM 291300Z 07016KT 040V120 CAVOK 20/M11 Q1031
LEMD - Madrid/Barajas, Spain
Distance from station: NO 305km
Actualización: 29/01/2022 14:00
Despejado
Despejado
 Viento del varies
Viento: varies 4 km/h
Temperatura: 15°C
Rocío: -2°C
Humedad: 31%
Barómetro: 1033 hPa
Resumen: Despejado
Visibility: greater than 10 km
2022/01/29 13:00 LEMD 291300Z VRB02KT CAVOK 15/M02 Q1033 NOSIG
 
LEPA - Palma De Mallorc, Spain
Distance from station: ENE 313km
Actualización: 29/01/2022 14:00
Poco nuboso
Poco nuboso
 Viento del ENE
Viento: ENE 7 km/h
Temperatura: 17°C
Rocío: 7°C
Humedad: 52%
Barómetro: 1031 hPa
Clouds: Poco nuboso
Visibility: 10 km
Cloud details: Poco nuboso 457 m
2022/01/29 13:00 LEPA 291300Z 07004KT 040V210 9999 FEW015 17/07 Q1031 NOSIG